createdAt,value
2023-02-07T00:00:26.062Z,17.35
2023-02-07T00:03:12.979Z,15.65
2023-02-07T00:06:10.894Z,16.77
2023-02-07T00:09:02.206Z,16.23
2023-02-07T00:11:49.016Z,17.58
2023-02-07T00:14:35.796Z,16.48
2023-02-07T00:17:22.604Z,17.27
2023-02-07T00:20:10.042Z,18.23
2023-02-07T00:22:56.909Z,19.13
2023-02-07T00:25:45.977Z,17.42
2023-02-07T00:28:32.937Z,17.83
2023-02-07T00:31:21.164Z,18.15
2023-02-07T00:34:08.449Z,17.77
2023-02-07T00:36:55.285Z,16.52
2023-02-07T00:39:42.387Z,19.55
2023-02-07T00:42:29.186Z,17.98
2023-02-07T00:45:16.081Z,16.45
2023-02-07T00:48:02.940Z,16.48
2023-02-07T00:50:49.720Z,18.73
2023-02-07T00:53:37.130Z,17.63
2023-02-07T00:56:26.361Z,17.33
2023-02-07T00:59:13.178Z,17.38
2023-02-07T01:01:59.987Z,15.95
2023-02-07T01:04:46.835Z,17.25
2023-02-07T01:07:34.274Z,18.52
2023-02-07T01:10:21.132Z,17.48
2023-02-07T01:13:08.327Z,16.90
2023-02-07T01:15:55.111Z,16.73
2023-02-07T01:18:41.905Z,19.02
2023-02-07T01:21:28.785Z,18.70
2023-02-07T01:24:16.323Z,17.75
2023-02-07T01:27:03.988Z,19.27
2023-02-07T01:29:51.266Z,17.42
2023-02-07T01:32:38.128Z,17.77
2023-02-07T01:35:24.918Z,18.92
2023-02-07T01:38:11.684Z,18.70
2023-02-07T01:40:58.475Z,18.27
2023-02-07T01:43:58.894Z,20.02
2023-02-07T01:46:45.644Z,18.83
2023-02-07T01:49:34.403Z,17.70
2023-02-07T01:52:28.335Z,18.83
2023-02-07T01:55:28.565Z,19.33
2023-02-07T01:58:15.860Z,20.33
2023-02-07T02:01:11.040Z,17.35
2023-02-07T02:03:57.960Z,20.08
2023-02-07T02:06:45.819Z,20.35
2023-02-07T02:09:32.643Z,18.95
2023-02-07T02:12:25.562Z,19.98
2023-02-07T02:15:31.147Z,18.77
2023-02-07T02:18:39.047Z,18.73
2023-02-07T02:21:45.657Z,19.17
2023-02-07T02:24:58.766Z,20.27
2023-02-07T02:28:11.573Z,18.52
2023-02-07T02:31:18.337Z,18.90
2023-02-07T02:34:34.208Z,18.23
2023-02-07T02:37:29.487Z,21.20
2023-02-07T02:40:42.172Z,19.85
2023-02-07T02:43:44.979Z,18.90
2023-02-07T02:46:34.942Z,17.85
2023-02-07T02:49:22.093Z,18.73
2023-02-07T02:52:08.853Z,19.27
2023-02-07T02:54:55.654Z,19.58
2023-02-07T02:57:49.383Z,18.38
2023-02-07T03:00:57.116Z,19.65
2023-02-07T03:03:55.911Z,19.58
2023-02-07T03:07:13.298Z,22.50
2023-02-07T03:10:18.826Z,18.65
2023-02-07T03:13:16.422Z,22.10
2023-02-07T03:16:15.514Z,22.17
2023-02-07T03:19:43.068Z,20.38
2023-02-07T03:22:30.132Z,20.20
2023-02-07T03:25:17.874Z,20.00
2023-02-07T03:28:05.501Z,20.73
2023-02-07T03:30:55.636Z,21.33
2023-02-07T03:33:43.874Z,19.52
2023-02-07T03:36:35.353Z,20.08
2023-02-07T03:39:22.192Z,19.73
2023-02-07T03:42:16.975Z,20.02
2023-02-07T03:45:05.939Z,20.65
2023-02-07T03:47:52.784Z,22.98
2023-02-07T03:50:39.571Z,19.67
2023-02-07T03:53:27.098Z,19.33
2023-02-07T03:56:13.873Z,22.02
2023-02-07T03:59:00.674Z,20.35
2023-02-07T04:01:47.440Z,19.92
2023-02-07T04:04:34.414Z,20.23
2023-02-07T04:07:21.204Z,22.27
2023-02-07T04:10:09.368Z,21.75
2023-02-07T04:12:56.144Z,19.42
2023-02-07T04:15:43.399Z,20.75
2023-02-07T04:18:30.182Z,21.13
2023-02-07T04:21:16.954Z,19.90
2023-02-07T04:24:03.887Z,21.40
2023-02-07T04:26:50.681Z,20.63
2023-02-07T04:29:37.542Z,20.55
2023-02-07T04:32:24.377Z,22.77
2023-02-07T04:35:11.238Z,23.58
2023-02-07T04:37:58.026Z,20.63
2023-02-07T04:40:44.804Z,22.70
2023-02-07T04:43:33.437Z,19.58
2023-02-07T04:46:20.265Z,22.48
2023-02-07T04:49:07.076Z,21.83
2023-02-07T04:51:53.907Z,19.48
2023-02-07T04:54:40.714Z,21.35
2023-02-07T04:57:27.516Z,21.27
2023-02-07T05:00:15.045Z,20.45
2023-02-07T05:03:01.873Z,22.70
2023-02-07T05:05:48.854Z,23.00
2023-02-07T05:08:36.925Z,22.48
2023-02-07T05:11:23.828Z,22.63
2023-02-07T05:14:10.706Z,22.08
2023-02-07T05:16:57.581Z,21.38
2023-02-07T05:19:45.005Z,24.95
2023-02-07T05:22:31.866Z,21.50
2023-02-07T05:25:19.069Z,21.67
2023-02-07T05:28:05.875Z,21.88
2023-02-07T05:30:55.222Z,21.70
2023-02-07T05:36:28.786Z,24.63
2023-02-07T05:39:15.604Z,22.85
2023-02-07T05:42:02.487Z,23.05
2023-02-07T05:44:49.273Z,21.42
2023-02-07T05:47:36.086Z,21.55
2023-02-07T05:50:23.295Z,21.83
2023-02-07T05:53:10.195Z,23.23
2023-02-07T05:55:57.018Z,21.60
2023-02-07T05:58:43.780Z,22.88
2023-02-07T06:01:30.562Z,23.15
2023-02-07T06:04:17.399Z,21.33
2023-02-07T06:07:05.042Z,22.92
2023-02-07T06:09:52.038Z,20.98
2023-02-07T06:12:39.371Z,23.00
2023-02-07T06:15:26.141Z,23.77
2023-02-07T06:18:12.917Z,25.25
2023-02-07T06:20:59.729Z,22.92
2023-02-07T06:23:49.639Z,23.92
2023-02-07T06:26:36.562Z,21.52
2023-02-07T06:29:23.399Z,24.92
2023-02-07T06:32:10.181Z,24.17
2023-02-07T06:34:56.973Z,26.67
2023-02-07T06:37:43.782Z,23.98
2023-02-07T06:40:30.553Z,28.90
2023-02-07T06:43:17.351Z,28.80
2023-02-07T06:46:04.272Z,32.92
2023-02-07T06:48:51.363Z,32.30
2023-02-07T06:51:38.133Z,33.92
2023-02-07T06:54:24.912Z,31.42
2023-02-07T06:57:11.819Z,31.38
2023-02-07T06:59:58.579Z,30.25
2023-02-07T07:02:45.361Z,28.70
2023-02-07T07:05:32.721Z,31.38
2023-02-07T07:08:19.688Z,30.52
2023-02-07T07:11:06.465Z,28.20
2023-02-07T07:13:53.227Z,28.33
2023-02-07T07:16:42.795Z,31.83
2023-02-07T07:19:29.562Z,32.38
2023-02-07T07:22:16.621Z,31.48
2023-02-07T07:25:04.384Z,29.25
2023-02-07T07:27:52.539Z,31.90
2023-02-07T07:30:39.423Z,32.30
2023-02-07T07:33:26.193Z,33.40
2023-02-07T07:36:13.159Z,29.80
2023-02-07T07:38:59.922Z,31.85
2023-02-07T07:41:46.898Z,31.70
2023-02-07T07:44:33.744Z,29.42
2023-02-07T07:47:20.514Z,34.00
2023-02-07T07:50:07.860Z,33.72
2023-02-07T07:52:54.640Z,31.40
2023-02-07T07:55:42.088Z,30.73
2023-02-07T07:58:31.886Z,28.42
2023-02-07T08:01:18.750Z,32.95
2023-02-07T08:04:05.738Z,30.70
2023-02-07T08:06:52.908Z,29.77
2023-02-07T08:09:39.668Z,24.70
2023-02-07T08:12:26.507Z,22.35
2023-02-07T08:15:14.087Z,25.30
2023-02-07T08:18:01.022Z,22.33
2023-02-07T08:20:49.823Z,22.50
2023-02-07T08:23:37.207Z,23.65
2023-02-07T08:26:23.993Z,21.83
2023-02-07T08:29:11.119Z,22.17
2023-02-07T08:31:57.914Z,20.88
2023-02-07T08:34:45.411Z,23.00
2023-02-07T08:37:32.208Z,21.70
2023-02-07T08:40:19.494Z,21.92
2023-02-07T08:43:12.132Z,21.17
2023-02-07T08:46:00.508Z,20.35
2023-02-07T08:48:47.584Z,25.00
2023-02-07T08:51:34.343Z,21.65
2023-02-07T08:54:21.158Z,23.35
2023-02-07T08:57:07.937Z,22.08
2023-02-07T08:59:54.814Z,24.00
2023-02-07T09:02:43.374Z,22.40
2023-02-07T09:05:33.741Z,23.15
2023-02-07T09:08:20.521Z,21.80
2023-02-07T09:11:10.248Z,23.40
2023-02-07T09:13:57.067Z,22.33
2023-02-07T09:16:43.861Z,21.58
2023-02-07T09:19:30.793Z,21.85
2023-02-07T09:22:17.541Z,23.17
2023-02-07T09:25:04.538Z,22.02
2023-02-07T09:27:51.608Z,22.13
2023-02-07T09:30:41.627Z,21.67
2023-02-07T09:33:29.767Z,21.48
2023-02-07T09:36:21.908Z,22.38
2023-02-07T09:39:08.676Z,23.05
2023-02-07T09:42:17.887Z,24.08
2023-02-07T09:45:10.138Z,22.95
2023-02-07T09:48:03.294Z,20.83
2023-02-07T09:50:55.426Z,20.48
2023-02-07T09:53:42.082Z,24.25
2023-02-07T09:56:30.155Z,28.10
2023-02-07T09:59:43.396Z,22.08
2023-02-07T10:02:53.226Z,22.92
2023-02-07T10:06:12.851Z,21.77
2023-02-07T10:09:06.524Z,19.27
2023-02-07T10:12:17.368Z,23.88
2023-02-07T10:15:16.877Z,18.60
2023-02-07T10:18:30.242Z,20.65
2023-02-07T10:21:33.584Z,23.80
2023-02-07T10:24:29.443Z,25.85
2023-02-07T10:27:24.329Z,22.02
2023-02-07T10:30:40.788Z,20.05
2023-02-07T10:33:36.235Z,20.55
2023-02-07T10:36:25.023Z,19.73
2023-02-07T10:39:39.277Z,18.73
2023-02-07T10:42:27.481Z,22.08
2023-02-07T10:45:14.764Z,19.83
2023-02-07T10:48:01.526Z,21.45
2023-02-07T10:50:48.362Z,19.95
2023-02-07T10:53:54.711Z,19.08
2023-02-07T10:56:50.364Z,21.63
2023-02-07T10:59:45.765Z,20.13
2023-02-07T11:02:37.348Z,19.17
2023-02-07T11:05:24.123Z,18.95
2023-02-07T11:08:26.095Z,19.35
2023-02-07T11:11:33.227Z,20.33
2023-02-07T11:14:26.585Z,21.85
2023-02-07T11:17:21.193Z,19.90
2023-02-07T11:20:24.327Z,19.05
2023-02-07T11:23:14.229Z,18.63
2023-02-07T11:26:02.649Z,20.08
2023-02-07T11:28:54.550Z,19.40
2023-02-07T11:31:42.235Z,17.92
2023-02-07T11:34:54.471Z,20.92
2023-02-07T11:37:48.593Z,20.67
2023-02-07T11:40:45.564Z,19.77
2023-02-07T11:43:34.374Z,19.55
2023-02-07T11:46:22.233Z,19.60
2023-02-07T11:49:27.472Z,20.58
2023-02-07T11:52:14.358Z,20.00
2023-02-07T11:55:05.879Z,21.67
2023-02-07T11:57:57.528Z,20.73
2023-02-07T12:00:44.862Z,18.05
2023-02-07T12:03:42.088Z,20.75
2023-02-07T12:06:38.569Z,20.98
2023-02-07T12:09:47.039Z,20.98
2023-02-07T12:12:44.206Z,22.83
2023-02-07T12:15:34.080Z,23.08
2023-02-07T12:18:34.528Z,21.33
2023-02-07T12:21:44.672Z,20.77
2023-02-07T12:24:37.256Z,21.35
2023-02-07T12:27:29.343Z,20.55
2023-02-07T12:30:33.278Z,21.88
2023-02-07T12:33:27.344Z,20.70
2023-02-07T12:36:36.808Z,19.52
2023-02-07T12:39:48.486Z,19.85
2023-02-07T12:42:45.496Z,19.48
2023-02-07T12:45:51.597Z,20.65
2023-02-07T12:49:03.386Z,19.52
2023-02-07T12:51:50.079Z,18.95
2023-02-07T12:54:48.682Z,20.35
2023-02-07T12:57:43.829Z,19.30
2023-02-07T13:00:56.841Z,20.10
2023-02-07T13:04:18.536Z,17.92
2023-02-07T13:07:45.979Z,20.65
2023-02-07T13:10:57.388Z,18.67
2023-02-07T13:14:06.580Z,19.02
2023-02-07T13:17:27.493Z,19.10
2023-02-07T13:20:26.106Z,20.38
2023-02-07T13:23:19.253Z,15.60
2023-02-07T13:26:10.738Z,16.25
2023-02-07T13:28:58.352Z,17.67
2023-02-07T13:32:05.432Z,16.65
2023-02-07T13:34:55.317Z,17.33
2023-02-07T13:38:04.104Z,16.23
2023-02-07T13:41:00.301Z,16.25
2023-02-07T13:44:08.965Z,16.05
2023-02-07T13:47:20.735Z,17.00
2023-02-07T13:50:26.014Z,17.13
2023-02-07T13:53:28.896Z,17.48
2023-02-07T13:56:34.988Z,16.20
2023-02-07T13:59:38.894Z,15.85
2023-02-07T14:02:25.781Z,15.73
2023-02-07T14:05:24.824Z,17.23
2023-02-07T14:08:23.990Z,16.80
2023-02-07T14:12:05.497Z,15.35
2023-02-07T14:15:02.282Z,14.77
2023-02-07T14:18:02.636Z,16.45
2023-02-07T14:20:49.993Z,17.55
2023-02-07T14:24:10.147Z,15.05
2023-02-07T14:27:02.428Z,15.95
2023-02-07T14:30:11.685Z,15.68
2023-02-07T14:36:13.626Z,14.98
2023-02-07T14:39:02.398Z,13.68
2023-02-07T14:41:50.621Z,14.80
2023-02-07T14:44:40.195Z,15.35
2023-02-07T14:47:29.211Z,16.00
2023-02-07T14:50:27.977Z,16.67
2023-02-07T14:53:14.922Z,16.20
2023-02-07T14:56:04.705Z,16.10
2023-02-07T14:58:54.258Z,15.70
2023-02-07T15:01:41.051Z,17.17
2023-02-07T15:04:27.845Z,14.13
2023-02-07T15:07:18.916Z,17.67
2023-02-07T15:10:19.485Z,14.75
2023-02-07T15:13:17.706Z,15.63
2023-02-07T15:16:16.771Z,15.65
2023-02-07T15:19:12.560Z,15.20
2023-02-07T15:21:59.783Z,14.93
2023-02-07T15:24:51.819Z,16.98
2023-02-07T15:27:38.935Z,13.77
2023-02-07T15:30:25.939Z,16.63
2023-02-07T15:33:17.731Z,15.38
2023-02-07T15:36:36.645Z,15.27
2023-02-07T15:39:24.990Z,16.05
2023-02-07T15:42:18.745Z,16.30
2023-02-07T15:45:10.652Z,17.02
2023-02-07T15:48:14.376Z,16.02
2023-02-07T15:51:05.283Z,15.10
2023-02-07T15:53:58.429Z,15.57
2023-02-07T15:56:49.800Z,15.98
2023-02-07T15:59:38.913Z,16.23
2023-02-07T16:02:32.884Z,16.20
2023-02-07T16:05:36.276Z,16.70
2023-02-07T16:08:35.169Z,14.88
2023-02-07T16:11:30.216Z,17.70
2023-02-07T16:14:22.375Z,16.60
2023-02-07T16:17:23.419Z,15.18
2023-02-07T16:20:14.597Z,14.25
2023-02-07T16:23:11.482Z,15.27
2023-02-07T16:26:00.974Z,16.67
2023-02-07T16:28:48.090Z,14.70
2023-02-07T16:31:35.545Z,14.45
2023-02-07T16:34:23.236Z,16.85
2023-02-07T16:37:10.026Z,15.57
2023-02-07T16:39:56.887Z,15.15
2023-02-07T16:42:44.117Z,15.02
2023-02-07T16:45:32.517Z,16.30
2023-02-07T16:48:19.357Z,14.15
2023-02-07T16:51:06.284Z,13.15
2023-02-07T16:53:53.315Z,17.88
2023-02-07T16:56:41.200Z,15.25
2023-02-07T16:59:28.231Z,14.77
2023-02-07T17:02:16.429Z,15.32
2023-02-07T17:05:03.536Z,16.13
2023-02-07T17:07:50.964Z,18.33
2023-02-07T17:10:38.348Z,13.95
2023-02-07T17:13:25.709Z,16.65
2023-02-07T17:16:13.575Z,14.30
2023-02-07T17:19:01.445Z,16.75
2023-02-07T17:21:48.512Z,16.48
2023-02-07T17:24:35.300Z,15.23
2023-02-07T17:27:22.050Z,15.07
2023-02-07T17:30:18.245Z,12.98
2023-02-07T17:33:08.783Z,16.27
2023-02-07T17:35:55.592Z,15.23
2023-02-07T17:38:42.493Z,16.00
2023-02-07T17:41:30.467Z,15.13
2023-02-07T17:44:21.283Z,15.75
2023-02-07T17:47:09.344Z,14.48
2023-02-07T17:49:56.159Z,13.98
2023-02-07T17:52:42.975Z,15.80
2023-02-07T17:55:31.662Z,15.07
2023-02-07T17:58:18.939Z,16.38
2023-02-07T18:01:05.888Z,13.95
2023-02-07T18:03:53.951Z,16.67
2023-02-07T18:06:40.833Z,16.27
2023-02-07T18:09:27.651Z,20.10
2023-02-07T18:12:17.358Z,18.40
2023-02-07T18:15:05.482Z,17.70
2023-02-07T18:17:52.807Z,18.50
2023-02-07T18:20:39.773Z,17.85
2023-02-07T18:23:26.704Z,19.35
2023-02-07T18:26:15.617Z,20.23
2023-02-07T18:29:02.766Z,18.38
2023-02-07T18:31:49.550Z,18.90
2023-02-07T18:34:36.343Z,17.30
2023-02-07T18:37:23.218Z,18.88
2023-02-07T18:40:10.543Z,19.67
2023-02-07T18:42:57.400Z,20.13
2023-02-07T18:45:44.729Z,19.92
2023-02-07T18:48:31.488Z,18.73
2023-02-07T18:51:18.559Z,24.00
2023-02-07T18:54:05.484Z,21.67
2023-02-07T18:56:52.616Z,21.02
2023-02-07T18:59:39.569Z,20.30
2023-02-07T19:02:26.466Z,23.65
2023-02-07T19:05:13.247Z,23.55
2023-02-07T19:08:00.057Z,22.60
2023-02-07T19:10:55.966Z,23.15
2023-02-07T19:13:43.254Z,23.27
2023-02-07T19:16:30.205Z,26.13
2023-02-07T19:19:17.068Z,23.02
2023-02-07T19:22:03.919Z,24.65
2023-02-07T19:24:50.717Z,24.65
2023-02-07T19:27:37.550Z,25.23
2023-02-07T19:30:24.460Z,24.15
2023-02-07T19:33:11.392Z,23.58
2023-02-07T19:36:06.898Z,23.83
2023-02-07T19:38:54.378Z,25.02
2023-02-07T19:41:41.222Z,26.63
2023-02-07T19:44:27.994Z,25.55
2023-02-07T19:47:14.793Z,26.48
2023-02-07T19:50:02.246Z,24.40
2023-02-07T19:52:49.047Z,26.08
2023-02-07T19:55:38.890Z,27.45
2023-02-07T19:58:25.680Z,26.17
2023-02-07T20:01:13.534Z,27.23
2023-02-07T20:04:00.742Z,25.77
2023-02-07T20:06:47.640Z,21.58
2023-02-07T20:09:34.480Z,23.20
2023-02-07T20:12:21.474Z,26.08
2023-02-07T20:15:08.762Z,26.02
2023-02-07T20:17:59.239Z,25.90
2023-02-07T20:20:48.077Z,28.05
2023-02-07T20:23:35.632Z,27.70
2023-02-07T20:26:31.727Z,28.90
2023-02-07T20:29:19.706Z,26.80
2023-02-07T20:32:06.482Z,27.80
2023-02-07T20:34:53.305Z,28.08
2023-02-07T20:37:40.112Z,27.13
2023-02-07T20:40:26.902Z,25.70
2023-02-07T20:43:13.668Z,27.73
2023-02-07T20:46:12.995Z,25.52
2023-02-07T20:51:49.213Z,23.58
2023-02-07T20:54:36.050Z,28.02
2023-02-07T20:57:22.870Z,27.58
2023-02-07T21:00:10.509Z,26.55
2023-02-07T21:02:57.300Z,28.38
2023-02-07T21:05:44.091Z,28.30
2023-02-07T21:08:40.271Z,25.67
2023-02-07T21:11:28.836Z,28.90
2023-02-07T21:14:25.442Z,25.48
2023-02-07T21:17:12.514Z,24.08
2023-02-07T21:19:59.367Z,26.70
2023-02-07T21:22:46.152Z,27.58
2023-02-07T21:25:32.895Z,29.67
2023-02-07T21:28:19.778Z,28.88
2023-02-07T21:31:09.883Z,28.23
2023-02-07T21:33:56.909Z,30.48
2023-02-07T21:36:44.527Z,27.00
2023-02-07T21:39:31.295Z,29.25
2023-02-07T21:42:18.075Z,27.52
2023-02-07T21:45:05.165Z,29.42
2023-02-07T21:47:51.966Z,29.77
2023-02-07T21:50:38.979Z,28.30
2023-02-07T21:53:25.915Z,29.40
2023-02-07T21:56:16.444Z,26.20
2023-02-07T21:59:07.137Z,26.02
2023-02-07T22:01:54.240Z,29.15
2023-02-07T22:04:41.089Z,27.70
2023-02-07T22:07:27.895Z,28.45
2023-02-07T22:10:14.733Z,29.58
2023-02-07T22:13:01.553Z,28.90
2023-02-07T22:15:50.996Z,25.77
2023-02-07T22:18:40.542Z,25.77
2023-02-07T22:21:33.051Z,26.88
2023-02-07T22:24:20.574Z,27.42
2023-02-07T22:27:13.447Z,27.13
2023-02-07T22:30:00.228Z,29.67
2023-02-07T22:32:47.066Z,29.50
2023-02-07T22:35:37.884Z,27.75
2023-02-07T22:38:24.689Z,28.08
2023-02-07T22:41:11.501Z,27.63
2023-02-07T22:43:58.658Z,26.38
2023-02-07T22:46:45.502Z,26.80
2023-02-07T22:49:33.814Z,26.80
2023-02-07T22:52:20.658Z,26.73
2023-02-07T22:55:07.645Z,24.13
2023-02-07T22:57:54.966Z,27.63
2023-02-07T23:00:42.734Z,26.25
2023-02-07T23:03:29.569Z,30.10
2023-02-07T23:06:16.518Z,28.55
2023-02-07T23:09:05.288Z,25.92
2023-02-07T23:11:52.162Z,25.90
2023-02-07T23:14:38.991Z,25.85
2023-02-07T23:17:27.163Z,25.65
2023-02-07T23:20:14.060Z,27.83
2023-02-07T23:23:00.824Z,27.13
2023-02-07T23:25:47.678Z,28.13
2023-02-07T23:28:34.699Z,26.83
2023-02-07T23:31:23.294Z,28.08
2023-02-07T23:34:10.210Z,27.75
2023-02-07T23:36:56.997Z,23.10
2023-02-07T23:39:43.856Z,26.88
2023-02-07T23:42:30.681Z,25.15
2023-02-07T23:45:22.741Z,26.23
2023-02-07T23:48:09.689Z,27.13
2023-02-07T23:50:58.017Z,25.58
2023-02-07T23:53:45.346Z,26.73
2023-02-07T23:56:32.398Z,26.05
2023-02-07T23:59:19.181Z,26.88
